createdAt,value
2019-04-16T00:00:55.548Z,63.54
2019-04-16T00:01:55.521Z,63.34
2019-04-16T00:02:55.541Z,63.34
2019-04-16T00:03:55.502Z,63.75
2019-04-16T00:04:56.750Z,63.54
2019-04-16T00:05:58.466Z,63.23
2019-04-16T00:06:55.464Z,63.34
2019-04-16T00:07:55.465Z,63.23
2019-04-16T00:08:57.322Z,63.23
2019-04-16T00:09:55.634Z,63.44
2019-04-16T00:10:55.609Z,63.23
2019-04-16T00:11:55.436Z,64.06
2019-04-16T00:12:55.426Z,63.89
2019-04-16T00:13:55.387Z,63.57
2019-04-16T00:14:55.384Z,63.99
2019-04-16T00:15:55.374Z,63.78
2019-04-16T00:16:55.392Z,63.89
2019-04-16T00:17:55.349Z,63.89
2019-04-16T00:18:57.835Z,63.78
2019-04-16T00:19:55.324Z,63.78
2019-04-16T00:20:55.314Z,63.99
2019-04-16T00:21:55.330Z,63.78
2019-04-16T00:22:55.359Z,63.99
2019-04-16T00:23:55.283Z,64.51
2019-04-16T00:24:55.269Z,64.09
2019-04-16T00:25:56.419Z,63.99
2019-04-16T00:26:57.804Z,63.99
2019-04-16T00:27:59.519Z,64.20
2019-04-16T00:28:56.448Z,63.68
2019-04-16T00:29:55.312Z,63.57
2019-04-16T00:30:55.244Z,64.20
2019-04-16T00:31:55.194Z,63.99
2019-04-16T00:32:55.190Z,64.40
2019-04-16T00:33:55.176Z,64.09
2019-04-16T00:34:55.166Z,64.20
2019-04-16T00:35:55.161Z,64.30
2019-04-16T00:36:55.183Z,64.09
2019-04-16T00:37:55.205Z,64.53
2019-04-16T00:38:55.302Z,64.61
2019-04-16T00:39:56.081Z,64.53
2019-04-16T00:40:55.147Z,64.23
2019-04-16T00:41:55.460Z,64.09
2019-04-16T00:42:55.223Z,64.32
2019-04-16T00:43:55.072Z,64.64
2019-04-16T00:44:55.057Z,64.32
2019-04-16T00:45:55.057Z,64.53
2019-04-16T00:46:55.039Z,64.61
2019-04-16T00:47:55.695Z,64.71
2019-04-16T00:48:55.021Z,64.51
2019-04-16T00:49:57.720Z,64.40
2019-04-16T00:50:55.006Z,64.32
2019-04-16T00:51:55.001Z,64.43
2019-04-16T00:52:54.976Z,65.16
2019-04-16T00:53:54.993Z,64.74
2019-04-16T00:54:54.964Z,64.84
2019-04-16T00:55:54.944Z,64.95
2019-04-16T00:56:54.933Z,65.05
2019-04-16T00:57:54.944Z,64.95
2019-04-16T00:58:54.909Z,65.05
2019-04-16T00:59:56.083Z,65.08
2019-04-16T01:00:54.914Z,65.16
2019-04-16T01:01:54.885Z,64.98
2019-04-16T01:02:54.905Z,65.05
2019-04-16T01:03:54.891Z,65.08
2019-04-16T01:04:54.900Z,65.29
2019-04-16T01:05:54.841Z,65.29
2019-04-16T01:06:54.837Z,65.19
2019-04-16T01:07:54.833Z,64.98
2019-04-16T01:08:55.303Z,65.08
2019-04-16T01:09:54.794Z,65.08
2019-04-16T01:10:54.790Z,65.08
2019-04-16T01:11:54.779Z,65.08
2019-04-16T01:12:54.776Z,64.87
2019-04-16T01:13:55.712Z,65.08
2019-04-16T01:14:58.903Z,65.19
2019-04-16T01:15:55.730Z,65.08
2019-04-16T01:16:54.726Z,65.08
2019-04-16T01:17:54.732Z,65.08
2019-04-16T01:18:54.705Z,64.87
2019-04-16T01:19:54.848Z,64.77
2019-04-16T01:20:54.729Z,64.98
2019-04-16T01:21:55.678Z,65.08
2019-04-16T01:22:54.729Z,65.50
2019-04-16T01:23:54.650Z,65.32
2019-04-16T01:24:54.681Z,65.32
2019-04-16T01:25:55.679Z,65.32
2019-04-16T01:26:55.439Z,65.94
2019-04-16T01:27:54.647Z,64.90
2019-04-16T01:28:54.607Z,65.22
2019-04-16T01:29:54.609Z,64.98
2019-04-16T01:30:54.599Z,65.19
2019-04-16T01:31:54.583Z,65.22
2019-04-16T01:32:54.583Z,65.22
2019-04-16T01:33:54.564Z,65.22
2019-04-16T01:34:54.539Z,65.22
2019-04-16T01:35:54.554Z,65.08
2019-04-16T01:36:54.957Z,65.11
2019-04-16T01:37:56.838Z,65.11
2019-04-16T01:39:07.519Z,65.01
2019-04-16T01:39:55.494Z,65.11
2019-04-16T01:40:54.475Z,64.80
2019-04-16T01:41:54.478Z,65.01
2019-04-16T01:42:55.256Z,64.90
2019-04-16T01:43:57.147Z,65.11
2019-04-16T01:44:54.437Z,65.04
2019-04-16T01:45:54.423Z,65.25
2019-04-16T01:46:54.434Z,65.56
2019-04-16T01:47:54.398Z,65.97
2019-04-16T01:48:54.386Z,65.66
2019-04-16T01:49:54.374Z,65.97
2019-04-16T01:50:54.369Z,65.14
2019-04-16T01:51:54.398Z,65.11
2019-04-16T01:52:54.350Z,65.01
2019-04-16T01:53:54.353Z,65.11
2019-04-16T01:54:54.971Z,64.94
2019-04-16T01:55:56.780Z,65.11
2019-04-16T01:56:54.305Z,65.14
2019-04-16T01:57:54.320Z,65.25
2019-04-16T01:58:54.305Z,65.35
2019-04-16T01:59:54.278Z,65.04
2019-04-16T02:00:54.327Z,64.94
2019-04-16T02:01:54.255Z,64.70
2019-04-16T02:02:54.331Z,64.94
2019-04-16T02:03:54.238Z,64.59
2019-04-16T02:04:54.286Z,64.83
2019-04-16T02:05:54.965Z,64.42
2019-04-16T02:06:56.987Z,64.52
2019-04-16T02:07:56.398Z,64.62
2019-04-16T02:08:54.235Z,64.52
2019-04-16T02:09:54.196Z,64.42
2019-04-16T02:10:54.163Z,64.11
2019-04-16T02:11:54.193Z,64.21
2019-04-16T02:12:54.255Z,64.62
2019-04-16T02:13:54.169Z,64.00
2019-04-16T02:14:54.155Z,64.11
2019-04-16T02:15:54.404Z,64.31
2019-04-16T02:16:56.108Z,63.38
2019-04-16T02:17:55.448Z,64.00
2019-04-16T02:18:54.101Z,64.31
2019-04-16T02:19:54.116Z,64.11
2019-04-16T02:20:54.057Z,64.21
2019-04-16T02:21:54.091Z,64.11
2019-04-16T02:22:54.105Z,64.11
2019-04-16T02:23:54.059Z,64.14
2019-04-16T02:24:54.032Z,64.00
2019-04-16T02:25:54.045Z,64.00
2019-04-16T02:26:54.831Z,64.24
2019-04-16T02:27:54.265Z,64.14
2019-04-16T02:28:56.456Z,64.21
2019-04-16T02:29:54.010Z,64.55
2019-04-16T02:30:53.982Z,64.62
2019-04-16T02:31:53.946Z,64.55
2019-04-16T02:32:53.978Z,64.24
2019-04-16T02:33:53.986Z,64.55
2019-04-16T02:34:53.932Z,64.45
2019-04-16T02:35:53.982Z,64.65
2019-04-16T02:37:00.563Z,64.48
2019-04-16T02:37:54.918Z,65.10
2019-04-16T02:38:53.959Z,64.89
2019-04-16T02:39:53.896Z,65.20
2019-04-16T02:40:53.873Z,64.86
2019-04-16T02:41:58.263Z,64.58
2019-04-16T02:42:53.835Z,65.00
2019-04-16T02:43:54.015Z,65.00
2019-04-16T02:44:53.822Z,65.00
2019-04-16T02:45:58.329Z,65.20
2019-04-16T02:46:53.848Z,65.00
2019-04-16T02:47:53.832Z,64.89
2019-04-16T02:48:53.767Z,65.20
2019-04-16T02:49:56.985Z,64.89
2019-04-16T02:50:53.826Z,65.10
2019-04-16T02:51:54.763Z,65.00
2019-04-16T02:52:53.773Z,65.10
2019-04-16T02:53:54.486Z,64.79
2019-04-16T02:54:53.716Z,65.00
2019-04-16T02:55:53.715Z,64.69
2019-04-16T02:56:53.801Z,64.79
2019-04-16T02:57:59.526Z,65.20
2019-04-16T02:58:54.691Z,65.00
2019-04-16T02:59:53.658Z,64.79
2019-04-16T03:00:53.662Z,64.89
2019-04-16T03:01:53.750Z,65.00
2019-04-16T03:02:54.514Z,65.20
2019-04-16T03:03:56.268Z,65.00
2019-04-16T03:04:58.170Z,64.79
2019-04-16T03:05:54.592Z,65.34
2019-04-16T03:06:53.629Z,64.79
2019-04-16T03:07:53.623Z,65.10
2019-04-16T03:08:53.563Z,64.69
2019-04-16T03:10:01.049Z,64.72
2019-04-16T03:10:54.632Z,64.48
2019-04-16T03:11:53.575Z,64.89
2019-04-16T03:12:53.546Z,64.61
2019-04-16T03:13:58.406Z,64.72
2019-04-16T03:14:54.537Z,64.58
2019-04-16T03:15:53.505Z,64.61
2019-04-16T03:16:53.522Z,64.58
2019-04-16T03:17:53.493Z,64.72
2019-04-16T03:18:53.531Z,64.92
2019-04-16T03:19:53.459Z,64.72
2019-04-16T03:20:55.707Z,64.72
2019-04-16T03:21:55.690Z,64.82
2019-04-16T03:22:53.425Z,64.82
2019-04-16T03:23:53.404Z,64.82
2019-04-16T03:24:53.389Z,64.82
2019-04-16T03:25:53.390Z,64.72
2019-04-16T03:26:53.463Z,64.72
2019-04-16T03:27:54.474Z,64.51
2019-04-16T03:28:55.659Z,64.69
2019-04-16T03:29:54.390Z,64.79
2019-04-16T03:30:53.424Z,64.72
2019-04-16T03:31:58.028Z,64.51
2019-04-16T03:32:54.459Z,64.92
2019-04-16T03:33:53.370Z,64.61
2019-04-16T03:34:54.135Z,65.23
2019-04-16T03:35:57.613Z,65.03
2019-04-16T03:36:54.279Z,65.13
2019-04-16T03:37:53.263Z,65.13
2019-04-16T03:38:53.275Z,64.92
2019-04-16T03:39:53.232Z,65.03
2019-04-16T03:40:55.882Z,65.23
2019-04-16T03:41:55.910Z,65.03
2019-04-16T03:42:53.229Z,64.92
2019-04-16T03:43:53.228Z,66.06
2019-04-16T03:44:53.211Z,65.23
2019-04-16T03:45:53.205Z,64.92
2019-04-16T03:46:53.188Z,65.03
2019-04-16T03:47:53.155Z,64.82
2019-04-16T03:48:56.153Z,65.03
2019-04-16T03:49:53.134Z,64.61
2019-04-16T03:50:53.128Z,65.03
2019-04-16T03:51:54.076Z,64.51
2019-04-16T03:52:53.117Z,64.51
2019-04-16T03:53:53.106Z,64.82
2019-04-16T03:54:53.972Z,64.51
2019-04-16T03:55:57.913Z,64.51
2019-04-16T03:56:54.177Z,64.51
2019-04-16T03:57:53.049Z,64.72
2019-04-16T03:58:53.210Z,64.72
2019-04-16T03:59:53.056Z,64.09
2019-04-16T04:00:53.124Z,64.20
2019-04-16T04:01:53.019Z,64.51
2019-04-16T04:02:55.177Z,64.20
2019-04-16T04:03:54.472Z,63.89
2019-04-16T04:04:52.977Z,64.20
2019-04-16T04:05:53.021Z,64.09
2019-04-16T04:06:53.007Z,63.89
2019-04-16T04:07:55.290Z,64.20
2019-04-16T04:08:53.304Z,64.09
2019-04-16T04:09:54.633Z,64.20
2019-04-16T04:10:52.949Z,64.51
2019-04-16T04:11:52.903Z,64.40
2019-04-16T04:12:52.896Z,63.99
2019-04-16T04:13:52.973Z,64.09
2019-04-16T04:14:54.250Z,64.20
2019-04-16T04:15:54.975Z,64.09
2019-04-16T04:16:52.853Z,64.20
2019-04-16T04:17:52.849Z,64.09
2019-04-16T04:18:52.833Z,64.61
2019-04-16T04:19:52.819Z,63.99
2019-04-16T04:20:52.845Z,64.09
2019-04-16T04:21:53.732Z,64.09
2019-04-16T04:22:56.756Z,64.30
2019-04-16T04:23:52.779Z,63.89
2019-04-16T04:24:52.782Z,63.89
2019-04-16T04:25:52.755Z,64.09
2019-04-16T04:26:52.792Z,63.78
2019-04-16T04:27:52.734Z,64.09
2019-04-16T04:28:52.748Z,64.40
2019-04-16T04:29:53.696Z,63.89
2019-04-16T04:30:52.705Z,64.20
2019-04-16T04:31:52.724Z,63.57
2019-04-16T04:32:52.681Z,63.78
2019-04-16T04:33:52.721Z,64.20
2019-04-16T04:34:52.657Z,64.20
2019-04-16T04:35:52.655Z,64.09
2019-04-16T04:36:52.686Z,64.20
2019-04-16T04:37:52.632Z,64.09
2019-04-16T04:38:52.626Z,64.51
2019-04-16T04:39:52.676Z,64.40
2019-04-16T04:40:52.602Z,64.61
2019-04-16T04:41:56.260Z,64.82
2019-04-16T04:42:52.623Z,64.43
2019-04-16T04:43:52.586Z,64.30
2019-04-16T04:44:52.557Z,63.99
2019-04-16T04:45:52.542Z,64.30
2019-04-16T04:46:52.534Z,64.40
2019-04-16T04:47:52.550Z,64.40
2019-04-16T04:48:55.706Z,64.40
2019-04-16T04:49:53.505Z,63.47
2019-04-16T04:50:52.497Z,63.65
2019-04-16T04:51:52.478Z,63.44
2019-04-16T04:52:52.470Z,63.02
2019-04-16T04:53:52.499Z,63.10
2019-04-16T04:54:54.093Z,62.51
2019-04-16T04:55:54.470Z,62.40
2019-04-16T04:56:52.424Z,62.16
2019-04-16T04:57:52.411Z,62.45
2019-04-16T04:58:52.474Z,62.14
2019-04-16T04:59:52.398Z,60.97
2019-04-16T05:00:52.423Z,61.18
2019-04-16T05:01:52.379Z,60.32
2019-04-16T05:02:52.377Z,59.78
2019-04-16T05:03:52.374Z,59.67
2019-04-16T05:04:53.266Z,58.54
2019-04-16T05:05:53.323Z,58.61
2019-04-16T05:06:54.375Z,58.40
2019-04-16T05:07:52.357Z,57.06
2019-04-16T05:08:52.313Z,56.83
2019-04-16T05:09:52.309Z,57.24
2019-04-16T05:10:58.939Z,56.49
2019-04-16T05:11:53.317Z,56.39
2019-04-16T05:12:53.541Z,56.60
2019-04-16T05:13:53.439Z,55.82
2019-04-16T05:14:57.228Z,54.79
2019-04-16T05:15:53.229Z,54.90
2019-04-16T05:16:52.257Z,54.86
2019-04-16T05:17:53.209Z,54.46
2019-04-16T05:18:52.207Z,54.25
2019-04-16T05:19:52.216Z,54.66
2019-04-16T05:20:52.284Z,54.51
2019-04-16T05:21:52.178Z,52.96
2019-04-16T05:22:53.478Z,52.32
2019-04-16T05:23:57.040Z,52.42
2019-04-16T05:24:53.135Z,51.98
2019-04-16T05:25:52.135Z,51.63
2019-04-16T05:26:52.230Z,50.81
2019-04-16T05:27:52.112Z,49.52
2019-04-16T05:28:52.091Z,49.91
2019-04-16T05:29:52.097Z,48.27
2019-04-16T05:30:52.564Z,48.38
2019-04-16T05:31:54.532Z,48.47
2019-04-16T05:32:52.103Z,48.50
2019-04-16T05:33:52.041Z,48.89
2019-04-16T05:34:52.034Z,48.47
2019-04-16T05:35:52.017Z,48.17
2019-04-16T05:36:52.026Z,48.38
2019-04-16T05:37:52.291Z,48.38
2019-04-16T05:38:55.511Z,46.91
2019-04-16T05:39:52.047Z,48.38
2019-04-16T05:40:51.970Z,47.74
2019-04-16T05:41:52.997Z,48.38
2019-04-16T05:42:52.792Z,48.27
2019-04-16T05:43:51.934Z,47.92
2019-04-16T05:44:51.922Z,47.30
2019-04-16T05:45:51.913Z,47.30
2019-04-16T05:46:51.905Z,46.38
2019-04-16T05:47:51.893Z,47.08
2019-04-16T05:48:53.994Z,45.74
2019-04-16T05:49:54.408Z,45.62
2019-04-16T05:50:52.863Z,46.23
2019-04-16T05:51:51.853Z,45.57
2019-04-16T05:52:51.843Z,44.65
2019-04-16T05:53:51.861Z,44.14
2019-04-16T05:54:51.843Z,43.82
2019-04-16T05:55:51.809Z,43.16
2019-04-16T05:56:54.485Z,43.61
2019-04-16T05:57:51.793Z,43.98
2019-04-16T05:58:51.797Z,43.91
2019-04-16T05:59:51.761Z,44.45
2019-04-16T06:00:51.758Z,44.53
2019-04-16T06:01:51.742Z,44.00
2019-04-16T06:02:51.724Z,43.79
2019-04-16T06:03:53.290Z,44.10
2019-04-16T06:04:55.623Z,43.35
2019-04-16T06:05:51.771Z,43.57
2019-04-16T06:06:51.691Z,43.67
2019-04-16T06:07:51.678Z,43.37
2019-04-16T06:08:51.690Z,42.75
2019-04-16T06:09:51.749Z,43.49
2019-04-16T06:10:51.762Z,43.24
2019-04-16T06:11:51.637Z,42.10
2019-04-16T06:12:51.632Z,42.20
2019-04-16T06:13:51.649Z,42.02
2019-04-16T06:14:53.996Z,43.59
2019-04-16T06:15:53.010Z,44.00
2019-04-16T06:16:53.398Z,43.26
2019-04-16T06:17:52.602Z,42.08
2019-04-16T06:18:51.560Z,41.24
2019-04-16T06:19:51.637Z,41.35
2019-04-16T06:20:53.033Z,40.83
2019-04-16T06:21:54.114Z,40.71
2019-04-16T06:22:51.522Z,41.56
2019-04-16T06:23:51.587Z,41.88
2019-04-16T06:24:51.536Z,42.00
2019-04-16T06:25:51.485Z,41.36
2019-04-16T06:26:51.651Z,40.69
2019-04-16T06:27:51.484Z,39.31
2019-04-16T06:28:55.089Z,38.40
2019-04-16T06:29:51.541Z,39.60
2019-04-16T06:30:51.476Z,38.38
2019-04-16T06:31:51.461Z,38.29
2019-04-16T06:32:51.455Z,38.26
2019-04-16T06:33:51.399Z,38.21
2019-04-16T06:34:51.385Z,38.78
2019-04-16T06:35:51.446Z,38.36
2019-04-16T06:36:51.391Z,37.54
2019-04-16T06:37:51.374Z,37.51
2019-04-16T06:38:51.379Z,37.02
2019-04-16T06:39:51.345Z,38.38
2019-04-16T06:40:51.320Z,37.99
2019-04-16T06:41:52.722Z,39.94
2019-04-16T06:42:51.476Z,38.58
2019-04-16T06:43:51.314Z,38.45
2019-04-16T06:44:51.315Z,37.39
2019-04-16T06:45:51.337Z,35.92
2019-04-16T06:46:51.406Z,36.58
2019-04-16T06:47:51.265Z,36.24
2019-04-16T06:48:51.237Z,34.97
2019-04-16T06:49:52.125Z,34.28
2019-04-16T06:50:51.216Z,34.70
2019-04-16T06:51:51.204Z,34.91
2019-04-16T06:52:51.214Z,35.33
2019-04-16T06:53:51.181Z,35.22
2019-04-16T06:54:51.167Z,35.51
2019-04-16T06:55:51.164Z,35.02
2019-04-16T06:56:51.155Z,35.00
2019-04-16T06:57:51.137Z,34.26
2019-04-16T06:58:56.793Z,33.72
2019-04-16T06:59:52.110Z,33.26
2019-04-16T07:00:51.099Z,34.36
2019-04-16T07:01:51.094Z,34.26
2019-04-16T07:03:02.099Z,34.77
2019-04-16T07:03:52.114Z,33.83
2019-04-16T07:04:51.096Z,33.20
2019-04-16T07:05:51.050Z,34.13
2019-04-16T07:06:51.041Z,34.47
2019-04-16T07:07:51.031Z,34.28
2019-04-16T07:08:51.024Z,34.47
2019-04-16T07:09:51.011Z,33.61
2019-04-16T07:10:51.027Z,32.14
2019-04-16T07:11:54.628Z,31.64
2019-04-16T07:12:51.029Z,31.62
2019-04-16T07:13:50.961Z,31.64
2019-04-16T07:14:50.966Z,31.22
2019-04-16T07:15:53.298Z,30.60
2019-04-16T07:16:51.977Z,30.60
2019-04-16T07:17:50.914Z,30.08
2019-04-16T07:18:50.903Z,29.75
2019-04-16T07:19:50.932Z,30.02
2019-04-16T07:20:50.901Z,29.07
2019-04-16T07:21:50.943Z,28.77
2019-04-16T07:22:52.898Z,28.67
2019-04-16T07:23:56.869Z,28.14
2019-04-16T07:24:51.866Z,28.64
2019-04-16T07:25:50.839Z,28.02
2019-04-16T07:26:50.907Z,27.20
2019-04-16T07:27:52.737Z,27.73
2019-04-16T07:28:50.816Z,27.21
2019-04-16T07:29:51.229Z,27.29
2019-04-16T07:30:50.856Z,26.47
2019-04-16T07:31:53.200Z,25.65
2019-04-16T07:32:50.753Z,24.84
2019-04-16T07:33:50.752Z,25.77
2019-04-16T07:34:50.879Z,25.93
2019-04-16T07:35:50.719Z,25.62
2019-04-16T07:36:51.418Z,25.10
2019-04-16T07:37:50.756Z,24.62
2019-04-16T07:38:50.696Z,26.15
2019-04-16T07:39:50.697Z,25.66
2019-04-16T07:40:50.690Z,25.46
2019-04-16T07:41:50.674Z,27.30
2019-04-16T07:42:51.976Z,25.88
2019-04-16T07:43:50.833Z,25.96
2019-04-16T07:44:50.735Z,25.77
2019-04-16T07:45:50.628Z,25.97
2019-04-16T07:46:50.612Z,26.90
2019-04-16T07:47:51.692Z,27.05
2019-04-16T07:48:51.449Z,27.97
2019-04-16T07:49:50.608Z,27.87
2019-04-16T07:50:52.969Z,28.18
2019-04-16T07:51:50.573Z,27.86
2019-04-16T07:52:50.582Z,27.54
2019-04-16T07:53:50.583Z,27.04
2019-04-16T07:54:50.562Z,27.11
2019-04-16T07:55:50.554Z,26.47
2019-04-16T07:56:50.506Z,25.04
2019-04-16T07:57:50.487Z,24.90
2019-04-16T07:58:50.534Z,24.07
2019-04-16T07:59:50.478Z,23.46
2019-04-16T08:00:50.470Z,24.41
2019-04-16T08:01:50.454Z,24.23
2019-04-16T08:02:50.774Z,25.84
2019-04-16T08:03:50.452Z,26.18
2019-04-16T08:04:50.422Z,25.98
2019-04-16T08:05:50.411Z,25.34
2019-04-16T08:06:50.416Z,24.22
2019-04-16T08:07:52.913Z,24.89
2019-04-16T08:08:50.420Z,26.65
2019-04-16T08:09:50.370Z,26.62
2019-04-16T08:10:50.365Z,27.06
2019-04-16T08:11:50.360Z,27.08
2019-04-16T08:12:50.344Z,26.64
2019-04-16T08:13:50.353Z,27.47
2019-04-16T08:14:50.322Z,28.08
2019-04-16T08:15:50.313Z,27.31
2019-04-16T08:16:50.292Z,25.96
2019-04-16T08:17:50.277Z,24.32
2019-04-16T08:18:50.294Z,23.79
2019-04-16T08:19:50.265Z,24.22
2019-04-16T08:21:01.042Z,25.56
2019-04-16T08:21:51.243Z,25.78
2019-04-16T08:22:50.296Z,25.21
2019-04-16T08:23:52.887Z,27.24
2019-04-16T08:24:50.214Z,26.31
2019-04-16T08:25:58.693Z,26.87
2019-04-16T08:26:51.201Z,25.83
2019-04-16T08:27:50.748Z,25.87
2019-04-16T08:28:50.185Z,26.85
2019-04-16T08:29:50.165Z,26.34
2019-04-16T08:30:50.144Z,27.08
2019-04-16T08:31:50.139Z,26.89
2019-04-16T08:32:50.175Z,27.06
2019-04-16T08:33:50.143Z,27.19
2019-04-16T08:34:50.116Z,27.08
2019-04-16T08:35:50.132Z,27.26
2019-04-16T08:36:50.081Z,24.89
2019-04-16T08:37:50.079Z,24.93
2019-04-16T08:38:50.126Z,25.14
2019-04-16T08:39:50.060Z,25.21
2019-04-16T08:40:50.042Z,24.73
2019-04-16T08:41:52.359Z,25.12
2019-04-16T08:42:50.018Z,24.59
2019-04-16T08:43:50.020Z,23.35
2019-04-16T08:44:50.031Z,25.93
2019-04-16T08:45:50.017Z,25.84
2019-04-16T08:46:49.978Z,24.94
2019-04-16T08:47:49.964Z,25.14
2019-04-16T08:48:53.870Z,24.93
2019-04-16T08:49:53.773Z,24.50
2019-04-16T08:50:49.962Z,23.94
2019-04-16T08:51:49.924Z,22.83
2019-04-16T08:52:49.915Z,22.54
2019-04-16T08:53:49.904Z,24.07
2019-04-16T08:54:51.191Z,23.34
2019-04-16T08:55:49.887Z,22.50
2019-04-16T08:56:49.897Z,22.11
2019-04-16T08:57:49.862Z,22.30
2019-04-16T08:58:49.854Z,22.11
2019-04-16T08:59:49.860Z,22.14
2019-04-16T09:00:49.825Z,22.97
2019-04-16T09:01:51.395Z,23.50
2019-04-16T09:02:49.804Z,24.43
2019-04-16T09:03:49.815Z,24.95
2019-04-16T09:04:49.805Z,23.62
2019-04-16T09:05:49.780Z,24.12
2019-04-16T09:06:49.769Z,23.34
2019-04-16T09:07:51.042Z,24.17
2019-04-16T09:08:52.554Z,24.87
2019-04-16T09:09:49.735Z,24.35
2019-04-16T09:10:49.727Z,24.11
2019-04-16T09:11:49.733Z,22.47
2019-04-16T09:13:02.324Z,22.14
2019-04-16T09:13:50.719Z,20.79
2019-04-16T09:14:54.821Z,20.40
2019-04-16T09:15:50.674Z,20.70
2019-04-16T09:16:49.668Z,20.40
2019-04-16T09:17:49.686Z,20.70
2019-04-16T09:18:49.691Z,19.79
2019-04-16T09:19:49.628Z,20.21
2019-04-16T09:20:49.745Z,21.67
2019-04-16T09:21:49.609Z,23.00
2019-04-16T09:22:53.394Z,22.71
2019-04-16T09:23:49.646Z,22.91
2019-04-16T09:24:49.584Z,22.61
2019-04-16T09:25:49.583Z,23.00
2019-04-16T09:26:49.556Z,21.98
2019-04-16T09:27:49.552Z,21.47
2019-04-16T09:28:49.946Z,21.76
2019-04-16T09:29:49.601Z,21.89
2019-04-16T09:30:50.631Z,22.19
2019-04-16T09:31:55.070Z,22.79
2019-04-16T09:32:50.490Z,22.63
2019-04-16T09:33:49.482Z,22.41
2019-04-16T09:34:49.475Z,22.10
2019-04-16T09:35:49.484Z,22.52
2019-04-16T09:36:49.456Z,23.53
2019-04-16T09:37:49.444Z,22.39
2019-04-16T09:38:49.600Z,23.11
2019-04-16T09:39:49.445Z,22.07
2019-04-16T09:40:49.476Z,22.04
2019-04-16T09:41:49.404Z,22.28
2019-04-16T09:42:49.396Z,22.74
2019-04-16T09:43:49.378Z,22.22
2019-04-16T09:44:49.449Z,22.63
2019-04-16T09:45:49.359Z,22.87
2019-04-16T09:46:51.560Z,23.03
2019-04-16T09:47:49.364Z,23.25
2019-04-16T09:48:50.200Z,22.96
2019-04-16T09:49:49.327Z,22.56
2019-04-16T09:50:49.329Z,22.75
2019-04-16T09:51:50.413Z,23.97
2019-04-16T09:52:49.304Z,23.77
2019-04-16T09:53:49.274Z,24.05
2019-04-16T09:54:49.519Z,22.91
2019-04-16T09:55:50.564Z,22.00
2019-04-16T09:56:49.255Z,21.77
2019-04-16T09:57:49.242Z,21.95
2019-04-16T09:58:49.224Z,20.51
2019-04-16T09:59:49.222Z,20.73
2019-04-16T10:00:49.252Z,21.67
2019-04-16T10:01:49.208Z,23.03
2019-04-16T10:02:49.192Z,23.57
2019-04-16T10:03:49.176Z,23.88
2019-04-16T10:04:49.166Z,24.47
2019-04-16T10:05:49.150Z,24.47
2019-04-16T10:06:49.185Z,24.58
2019-04-16T10:07:49.143Z,24.32
2019-04-16T10:08:49.136Z,23.82
2019-04-16T10:09:51.297Z,24.22
2019-04-16T10:10:50.105Z,24.35
2019-04-16T10:11:49.094Z,23.90
2019-04-16T10:12:49.118Z,22.56
2019-04-16T10:13:49.083Z,22.27
2019-04-16T10:14:49.088Z,21.87
2019-04-16T10:15:49.052Z,22.16
2019-04-16T10:16:49.057Z,22.37
2019-04-16T10:17:49.027Z,23.65
2019-04-16T10:18:49.019Z,24.43
2019-04-16T10:19:49.087Z,23.82
2019-04-16T10:20:49.111Z,23.92
2019-04-16T10:21:53.227Z,22.50
2019-04-16T10:22:49.988Z,21.65
2019-04-16T10:23:48.998Z,20.53
2019-04-16T10:24:48.988Z,21.34
2019-04-16T10:25:48.958Z,22.37
2019-04-16T10:26:48.971Z,22.97
2019-04-16T10:27:48.957Z,22.15
2019-04-16T10:28:48.927Z,20.61
2019-04-16T10:29:48.949Z,19.88
2019-04-16T10:30:48.900Z,21.01
2019-04-16T10:31:48.898Z,20.75
2019-04-16T10:32:48.914Z,22.18
2019-04-16T10:33:48.898Z,22.44
2019-04-16T10:34:48.912Z,22.44
2019-04-16T10:35:48.845Z,22.11
2019-04-16T10:36:48.840Z,21.51
2019-04-16T10:37:48.858Z,22.01
2019-04-16T10:38:48.872Z,22.12
2019-04-16T10:39:48.819Z,22.44
2019-04-16T10:40:48.834Z,22.34
2019-04-16T10:41:48.817Z,23.35
2019-04-16T10:42:48.809Z,22.41
2019-04-16T10:43:48.815Z,21.67
2019-04-16T10:44:48.764Z,22.00
2019-04-16T10:45:48.770Z,22.79
2019-04-16T10:46:48.777Z,22.19
2019-04-16T10:47:48.735Z,22.52
2019-04-16T10:48:48.767Z,22.59
2019-04-16T10:49:48.739Z,21.78
2019-04-16T10:50:48.707Z,22.41
2019-04-16T10:51:48.715Z,22.91
2019-04-16T10:52:54.347Z,22.29
2019-04-16T10:53:49.747Z,21.87
2019-04-16T10:54:48.715Z,21.48
2019-04-16T10:55:48.701Z,23.22
2019-04-16T10:56:48.675Z,21.48
2019-04-16T10:57:48.722Z,22.64
2019-04-16T10:58:48.719Z,23.06
2019-04-16T10:59:48.672Z,22.71
2019-04-16T11:00:48.715Z,21.47
2019-04-16T11:01:48.644Z,21.58
2019-04-16T11:02:48.620Z,20.97
2019-04-16T11:03:48.596Z,19.92
2019-04-16T11:04:48.594Z,19.31
2019-04-16T11:05:48.666Z,20.04
2019-04-16T11:06:48.567Z,20.62
2019-04-16T11:07:48.560Z,18.69
2019-04-16T11:08:48.559Z,19.31
2019-04-16T11:09:48.538Z,19.93
2019-04-16T11:10:48.611Z,20.57
2019-04-16T11:11:48.530Z,19.87
2019-04-16T11:12:48.493Z,21.11
2019-04-16T11:13:59.736Z,20.47
2019-04-16T11:14:49.467Z,20.15
2019-04-16T11:15:48.465Z,20.47
2019-04-16T11:16:48.463Z,20.56
2019-04-16T11:17:48.482Z,19.56
2019-04-16T11:18:48.439Z,19.64
2019-04-16T11:19:52.626Z,19.89
2019-04-16T11:20:49.405Z,20.83
2019-04-16T11:21:48.423Z,21.00
2019-04-16T11:22:48.423Z,20.29
2019-04-16T11:23:48.412Z,21.00
2019-04-16T11:24:48.398Z,20.89
2019-04-16T11:25:48.395Z,20.89
2019-04-16T11:26:48.359Z,19.46
2019-04-16T11:27:48.406Z,19.44
2019-04-16T11:28:48.361Z,20.00
2019-04-16T11:29:48.328Z,20.70
2019-04-16T11:30:48.862Z,20.51
2019-04-16T11:31:48.309Z,20.27
2019-04-16T11:32:48.295Z,20.16
2019-04-16T11:33:48.328Z,20.03
2019-04-16T11:34:48.266Z,19.20
2019-04-16T11:35:52.745Z,19.64
2019-04-16T11:36:49.274Z,19.97
2019-04-16T11:37:48.329Z,19.85
2019-04-16T11:38:48.280Z,19.29
2019-04-16T11:39:48.222Z,19.70
2019-04-16T11:40:48.239Z,19.93
2019-04-16T11:41:48.238Z,19.64
2019-04-16T11:42:48.195Z,19.75
2019-04-16T11:43:48.199Z,19.94
2019-04-16T11:44:50.246Z,20.67
2019-04-16T11:45:48.244Z,19.96
2019-04-16T11:46:48.178Z,20.36
2019-04-16T11:47:48.519Z,20.14
2019-04-16T11:48:50.249Z,20.05
2019-04-16T11:49:48.168Z,20.05
2019-04-16T11:50:48.148Z,19.93
2019-04-16T11:51:48.138Z,19.94
2019-04-16T11:52:48.138Z,20.04
2019-04-16T11:53:48.122Z,20.05
2019-04-16T11:54:48.089Z,20.14
2019-04-16T11:55:48.104Z,19.10
2019-04-16T11:56:48.089Z,20.23
2019-04-16T11:57:48.113Z,19.37
2019-04-16T11:58:48.037Z,17.85
2019-04-16T11:59:48.065Z,18.23
2019-04-16T12:00:48.099Z,18.45
2019-04-16T12:01:48.055Z,18.77
2019-04-16T12:02:48.074Z,18.55
2019-04-16T12:03:48.067Z,17.65
2019-04-16T12:04:48.049Z,18.36
2019-04-16T12:05:48.021Z,20.12
2019-04-16T12:06:48.041Z,19.83
2019-04-16T12:07:48.148Z,19.93
2019-04-16T12:08:48.061Z,19.92
2019-04-16T12:09:47.928Z,19.93
2019-04-16T12:10:47.941Z,19.96
2019-04-16T12:11:47.907Z,19.43
2019-04-16T12:12:47.967Z,19.94
2019-04-16T12:13:47.924Z,20.45
2019-04-16T12:14:47.898Z,20.42
2019-04-16T12:15:47.870Z,20.01
2019-04-16T12:16:47.856Z,18.88
2019-04-16T12:17:47.857Z,19.81
2019-04-16T12:18:48.022Z,20.34
2019-04-16T12:19:47.829Z,19.93
2019-04-16T12:20:47.826Z,19.93
2019-04-16T12:21:47.839Z,20.25
2019-04-16T12:22:47.848Z,20.64
2019-04-16T12:23:47.827Z,20.03
2019-04-16T12:24:47.795Z,19.83
2019-04-16T12:25:47.755Z,20.10
2019-04-16T12:26:47.763Z,19.26
2019-04-16T12:27:47.779Z,18.33
2019-04-16T12:28:47.759Z,17.63
2019-04-16T12:29:47.752Z,17.99
2019-04-16T12:30:47.771Z,19.53
2019-04-16T12:31:47.805Z,20.17
2019-04-16T12:32:47.728Z,21.41
2019-04-16T12:33:47.714Z,20.39
2019-04-16T12:34:51.038Z,21.17
2019-04-16T12:35:47.694Z,20.89
2019-04-16T12:36:47.707Z,20.67
2019-04-16T12:37:47.646Z,20.69
2019-04-16T12:38:47.624Z,21.20
2019-04-16T12:39:47.620Z,19.94
2019-04-16T12:40:47.622Z,20.67
2019-04-16T12:41:47.658Z,20.67
2019-04-16T12:42:47.610Z,20.59
2019-04-16T12:43:50.770Z,21.80
2019-04-16T12:44:47.613Z,20.56
2019-04-16T12:45:47.586Z,20.62
2019-04-16T12:46:47.581Z,19.92
2019-04-16T12:47:47.567Z,19.81
2019-04-16T12:48:47.593Z,19.15
2019-04-16T12:49:47.535Z,19.13
2019-04-16T12:50:47.586Z,19.07
2019-04-16T12:51:47.564Z,19.70
2019-04-16T12:52:47.532Z,20.03